sensor_id;sensor_type;location;lat;lon;timestamp;pressure;altitude;pressure_sealevel;temperature;humidity
82575;BME280;72260;65.870;13.210;2024-01-10T00:00:21;102246.03;;;4.52;81.77
82575;BME280;72260;65.870;13.210;2024-01-10T00:02:47;102244.28;;;4.53;81.71
82575;BME280;72260;65.870;13.210;2024-01-10T00:05:12;102253.06;;;4.49;83.60
82575;BME280;72260;65.870;13.210;2024-01-10T00:07:38;102251.16;;;4.60;81.58
82575;BME280;72260;65.870;13.210;2024-01-10T00:10:04;102249.44;;;4.56;81.67
82575;BME280;72260;65.870;13.210;2024-01-10T00:12:29;102237.38;;;4.46;81.90
82575;BME280;72260;65.870;13.210;2024-01-10T00:15:00;102244.22;;;4.56;82.05
82575;BME280;72260;65.870;13.210;2024-01-10T00:17:26;102229.53;;;4.43;81.64
82575;BME280;72260;65.870;13.210;2024-01-10T00:19:51;102230.66;;;4.19;83.33
82575;BME280;72260;65.870;13.210;2024-01-10T00:22:17;102229.97;;;3.97;85.01
82575;BME280;72260;65.870;13.210;2024-01-10T00:24:42;102237.81;;;4.00;84.68
82575;BME280;72260;65.870;13.210;2024-01-10T00:27:08;102227.41;;;3.92;84.59
82575;BME280;72260;65.870;13.210;2024-01-10T00:29:33;102221.44;;;3.80;85.53
82575;BME280;72260;65.870;13.210;2024-01-10T00:31:59;102217.84;;;3.90;85.03
82575;BME280;72260;65.870;13.210;2024-01-10T00:34:25;102205.69;;;3.84;84.73
82575;BME280;72260;65.870;13.210;2024-01-10T00:36:50;102216.28;;;3.67;85.72
82575;BME280;72260;65.870;13.210;2024-01-10T00:39:19;102219.78;;;3.66;85.96
82575;BME280;72260;65.870;13.210;2024-01-10T00:41:44;102218.88;;;3.70;86.95
82575;BME280;72260;65.870;13.210;2024-01-10T00:44:10;102215.19;;;3.93;86.81
82575;BME280;72260;65.870;13.210;2024-01-10T00:46:35;102212.66;;;3.87;86.12
82575;BME280;72260;65.870;13.210;2024-01-10T00:49:02;102217.91;;;3.85;86.26
82575;BME280;72260;65.870;13.210;2024-01-10T00:51:28;102208.22;;;3.90;85.79
82575;BME280;72260;65.870;13.210;2024-01-10T00:53:53;102210.03;;;3.88;85.93
82575;BME280;72260;65.870;13.210;2024-01-10T00:56:18;102204.00;;;3.79;85.78
82575;BME280;72260;65.870;13.210;2024-01-10T00:58:44;102198.75;;;3.79;84.89
82575;BME280;72260;65.870;13.210;2024-01-10T01:01:09;102195.47;;;3.55;87.15
82575;BME280;72260;65.870;13.210;2024-01-10T01:03:35;102185.72;;;3.76;86.87
82575;BME280;72260;65.870;13.210;2024-01-10T01:06:01;102178.16;;;3.41;87.67
82575;BME280;72260;65.870;13.210;2024-01-10T01:08:27;102163.13;;;3.65;88.02
82575;BME280;72260;65.870;13.210;2024-01-10T01:10:52;102167.38;;;3.79;86.11
82575;BME280;72260;65.870;13.210;2024-01-10T01:13:18;102171.69;;;3.83;85.90
82575;BME280;72260;65.870;13.210;2024-01-10T01:15:43;102164.78;;;3.77;84.71
82575;BME280;72260;65.870;13.210;2024-01-10T01:18:09;102163.16;;;3.61;86.40
82575;BME280;72260;65.870;13.210;2024-01-10T01:20:35;102154.44;;;3.60;86.63
82575;BME280;72260;65.870;13.210;2024-01-10T01:23:00;102154.22;;;3.88;86.67
82575;BME280;72260;65.870;13.210;2024-01-10T01:25:26;102155.09;;;3.85;85.90
82575;BME280;72260;65.870;13.210;2024-01-10T01:27:51;102145.53;;;3.81;85.73
82575;BME280;72260;65.870;13.210;2024-01-10T01:30:17;102154.22;;;3.88;85.88
82575;BME280;72260;65.870;13.210;2024-01-10T01:32:42;102152.47;;;3.87;86.97
82575;BME280;72260;65.870;13.210;2024-01-10T01:35:08;102151.63;;;3.85;86.49
82575;BME280;72260;65.870;13.210;2024-01-10T01:37:33;102153.28;;;3.90;86.71
82575;BME280;72260;65.870;13.210;2024-01-10T01:39:59;102149.84;;;3.88;87.48
82575;BME280;72260;65.870;13.210;2024-01-10T01:42:24;102140.31;;;3.80;86.38
82575;BME280;72260;65.870;13.210;2024-01-10T01:44:50;102138.59;;;3.77;86.12
82575;BME280;72260;65.870;13.210;2024-01-10T01:47:15;102127.91;;;4.00;86.43
82575;BME280;72260;65.870;13.210;2024-01-10T01:49:42;102136.47;;;4.14;84.80
82575;BME280;72260;65.870;13.210;2024-01-10T01:52:10;102147.84;;;4.13;84.89
82575;BME280;72260;65.870;13.210;2024-01-10T01:54:36;102132.19;;;4.07;85.26
82575;BME280;72260;65.870;13.210;2024-01-10T01:57:02;102140.16;;;3.93;84.90
82575;BME280;72260;65.870;13.210;2024-01-10T01:59:28;102141.22;;;3.77;86.39
82575;BME280;72260;65.870;13.210;2024-01-10T02:01:54;102157.00;;;3.68;86.77
82575;BME280;72260;65.870;13.210;2024-01-10T02:04:20;102140.63;;;3.48;87.02
82575;BME280;72260;65.870;13.210;2024-01-10T02:06:46;102146.91;;;3.24;88.10
82575;BME280;72260;65.870;13.210;2024-01-10T02:09:11;102167.63;;;3.48;88.69
82575;BME280;72260;65.870;13.210;2024-01-10T02:11:37;102160.63;;;3.52;88.91
82575;BME280;72260;65.870;13.210;2024-01-10T02:14:03;102164.03;;;3.61;88.94
82575;BME280;72260;65.870;13.210;2024-01-10T02:16:29;102173.53;;;3.71;88.65
82575;BME280;72260;65.870;13.210;2024-01-10T02:18:54;102168.03;;;3.99;87.27
82575;BME280;72260;65.870;13.210;2024-01-10T02:21:21;102179.16;;;4.22;85.69
82575;BME280;72260;65.870;13.210;2024-01-10T02:23:47;102154.59;;;4.32;85.22
82575;BME280;72260;65.870;13.210;2024-01-10T02:26:13;102161.41;;;4.46;84.98
82575;BME280;72260;65.870;13.210;2024-01-10T02:28:42;102141.34;;;4.46;83.83
82575;BME280;72260;65.870;13.210;2024-01-10T02:31:07;102158.63;;;4.58;83.00
82575;BME280;72260;65.870;13.210;2024-01-10T02:33:35;102150.06;;;4.47;81.48
82575;BME280;72260;65.870;13.210;2024-01-10T02:36:01;102160.53;;;4.47;82.68
82575;BME280;72260;65.870;13.210;2024-01-10T02:38:26;102136.91;;;4.53;82.48
82575;BME280;72260;65.870;13.210;2024-01-10T02:40:52;102124.56;;;4.58;82.30
82575;BME280;72260;65.870;13.210;2024-01-10T02:43:18;102121.91;;;4.61;82.41
82575;BME280;72260;65.870;13.210;2024-01-10T02:45:44;102110.63;;;4.57;80.64
82575;BME280;72260;65.870;13.210;2024-01-10T02:48:09;102125.28;;;4.70;79.96
82575;BME280;72260;65.870;13.210;2024-01-10T02:50:35;102122.59;;;4.75;78.13
82575;BME280;72260;65.870;13.210;2024-01-10T02:53:00;102128.66;;;4.80;77.08
82575;BME280;72260;65.870;13.210;2024-01-10T02:55:26;102113.88;;;4.75;76.93
82575;BME280;72260;65.870;13.210;2024-01-10T02:57:51;102075.50;;;4.70;76.76
82575;BME280;72260;65.870;13.210;2024-01-10T03:00:17;102079.13;;;4.62;77.07
82575;BME280;72260;65.870;13.210;2024-01-10T03:02:43;102079.97;;;4.64;77.43
82575;BME280;72260;65.870;13.210;2024-01-10T03:05:08;102075.66;;;4.60;76.76
82575;BME280;72260;65.870;13.210;2024-01-10T03:07:34;102073.78;;;4.69;77.49
82575;BME280;72260;65.870;13.210;2024-01-10T03:09:59;102079.75;;;4.81;77.62
82575;BME280;72260;65.870;13.210;2024-01-10T03:12:24;102077.06;;;4.85;77.24
82575;BME280;72260;65.870;13.210;2024-01-10T03:14:50;102085.09;;;4.71;78.07
82575;BME280;72260;65.870;13.210;2024-01-10T03:17:15;102086.75;;;4.79;78.04
82575;BME280;72260;65.870;13.210;2024-01-10T03:19:41;102086.66;;;4.85;78.68
82575;BME280;72260;65.870;13.210;2024-01-10T03:22:10;102092.91;;;4.75;78.51
82575;BME280;72260;65.870;13.210;2024-01-10T03:24:38;102107.81;;;4.71;77.40
82575;BME280;72260;65.870;13.210;2024-01-10T03:27:04;102068.38;;;4.80;76.47
82575;BME280;72260;65.870;13.210;2024-01-10T03:29:30;102086.72;;;4.82;75.35
82575;BME280;72260;65.870;13.210;2024-01-10T03:31:55;102088.22;;;4.96;74.72
82575;BME280;72260;65.870;13.210;2024-01-10T03:34:21;102082.97;;;4.96;74.39
82575;BME280;72260;65.870;13.210;2024-01-10T03:36:47;102077.75;;;4.95;74.79
82575;BME280;72260;65.870;13.210;2024-01-10T03:39:12;102038.47;;;4.93;75.69
82575;BME280;72260;65.870;13.210;2024-01-10T03:41:37;102049.84;;;4.91;75.01
82575;BME280;72260;65.870;13.210;2024-01-10T03:44:04;102058.69;;;4.87;75.91
82575;BME280;72260;65.870;13.210;2024-01-10T03:46:29;102053.38;;;4.88;75.05
82575;BME280;72260;65.870;13.210;2024-01-10T03:48:54;102062.09;;;4.90;74.99
82575;BME280;72260;65.870;13.210;2024-01-10T03:51:20;102043.78;;;4.89;75.93
82575;BME280;72260;65.870;13.210;2024-01-10T03:53:46;102038.69;;;4.81;77.31
82575;BME280;72260;65.870;13.210;2024-01-10T03:56:14;102049.06;;;4.87;75.97
82575;BME280;72260;65.870;13.210;2024-01-10T03:58:40;102041.16;;;4.89;76.00
82575;BME280;72260;65.870;13.210;2024-01-10T04:01:07;102048.28;;;4.81;76.87
82575;BME280;72260;65.870;13.210;2024-01-10T04:03:33;102042.22;;;4.79;76.45
82575;BME280;72260;65.870;13.210;2024-01-10T04:05:58;102045.81;;;4.71;78.72
82575;BME280;72260;65.870;13.210;2024-01-10T04:08:24;102023.13;;;4.70;77.78
82575;BME280;72260;65.870;13.210;2024-01-10T04:10:49;102016.22;;;4.63;77.37
82575;BME280;72260;65.870;13.210;2024-01-10T04:13:15;102046.00;;;4.58;77.55
82575;BME280;72260;65.870;13.210;2024-01-10T04:15:40;102038.97;;;4.60;78.02
82575;BME280;72260;65.870;13.210;2024-01-10T04:18:06;102025.88;;;4.60;77.40
82575;BME280;72260;65.870;13.210;2024-01-10T04:20:31;102019.75;;;4.61;78.04
82575;BME280;72260;65.870;13.210;2024-01-10T04:22:57;102008.53;;;4.54;77.45
82575;BME280;72260;65.870;13.210;2024-01-10T04:25:22;102005.94;;;4.53;76.77
82575;BME280;72260;65.870;13.210;2024-01-10T04:27:47;102004.06;;;4.59;76.58
82575;BME280;72260;65.870;13.210;2024-01-10T04:30:15;102018.16;;;4.54;77.09
82575;BME280;72260;65.870;13.210;2024-01-10T04:32:41;102010.22;;;4.57;76.69
82575;BME280;72260;65.870;13.210;2024-01-10T04:35:06;101988.31;;;4.61;76.60
82575;BME280;72260;65.870;13.210;2024-01-10T04:37:32;101987.63;;;4.51;76.00
82575;BME280;72260;65.870;13.210;2024-01-10T04:39:57;101960.53;;;4.52;77.17
82575;BME280;72260;65.870;13.210;2024-01-10T04:42:23;101979.81;;;4.48;76.62
82575;BME280;72260;65.870;13.210;2024-01-10T04:44:48;101964.13;;;4.45;77.23
82575;BME280;72260;65.870;13.210;2024-01-10T04:47:15;101976.56;;;4.31;77.61
82575;BME280;72260;65.870;13.210;2024-01-10T04:49:40;101972.03;;;4.42;76.31
82575;BME280;72260;65.870;13.210;2024-01-10T04:52:06;101982.44;;;4.48;77.02
82575;BME280;72260;65.870;13.210;2024-01-10T04:54:31;101968.44;;;4.49;77.13
82575;BME280;72260;65.870;13.210;2024-01-10T04:56:57;101965.91;;;4.45;77.13
82575;BME280;72260;65.870;13.210;2024-01-10T04:59:23;101973.72;;;4.46;77.48
82575;BME280;72260;65.870;13.210;2024-01-10T05:01:48;101978.81;;;4.55;77.04
82575;BME280;72260;65.870;13.210;2024-01-10T05:04:14;101978.72;;;4.61;78.65
82575;BME280;72260;65.870;13.210;2024-01-10T05:06:39;101963.22;;;4.48;77.00
82575;BME280;72260;65.870;13.210;2024-01-10T05:09:05;101955.47;;;4.42;77.54
82575;BME280;72260;65.870;13.210;2024-01-10T05:11:32;101957.22;;;4.41;76.87
82575;BME280;72260;65.870;13.210;2024-01-10T05:13:57;101945.97;;;4.34;77.28
82575;BME280;72260;65.870;13.210;2024-01-10T05:16:23;101956.47;;;4.31;77.46
82575;BME280;72260;65.870;13.210;2024-01-10T05:18:48;101940.66;;;4.39;76.68
82575;BME280;72260;65.870;13.210;2024-01-10T05:21:14;101927.59;;;4.37;76.07
82575;BME280;72260;65.870;13.210;2024-01-10T05:23:39;101951.13;;;4.39;75.80
82575;BME280;72260;65.870;13.210;2024-01-10T05:26:05;101941.59;;;4.35;76.32
82575;BME280;72260;65.870;13.210;2024-01-10T05:28:31;101934.56;;;4.38;76.28
82575;BME280;72260;65.870;13.210;2024-01-10T05:30:58;101925.94;;;4.32;76.83
82575;BME280;72260;65.870;13.210;2024-01-10T05:33:24;101902.41;;;4.29;76.51
82575;BME280;72260;65.870;13.210;2024-01-10T05:35:49;101906.56;;;4.44;76.55
82575;BME280;72260;65.870;13.210;2024-01-10T05:38:15;101919.63;;;4.45;76.38
82575;BME280;72260;65.870;13.210;2024-01-10T05:40:41;101926.56;;;4.48;76.40
82575;BME280;72260;65.870;13.210;2024-01-10T05:43:06;101924.78;;;4.50;77.02
82575;BME280;72260;65.870;13.210;2024-01-10T05:45:32;101923.00;;;4.53;77.33
82575;BME280;72260;65.870;13.210;2024-01-10T05:47:58;101917.81;;;4.50;77.77
82575;BME280;72260;65.870;13.210;2024-01-10T05:50:24;101923.16;;;4.43;78.31
82575;BME280;72260;65.870;13.210;2024-01-10T05:52:50;101923.19;;;4.41;78.63
82575;BME280;72260;65.870;13.210;2024-01-10T05:55:15;101917.16;;;4.34;78.57
82575;BME280;72260;65.870;13.210;2024-01-10T05:57:41;101911.75;;;4.47;78.39
82575;BME280;72260;65.870;13.210;2024-01-10T06:00:07;101911.06;;;4.34;78.90
82575;BME280;72260;65.870;13.210;2024-01-10T06:02:41;101916.56;;;4.19;79.20
82575;BME280;72260;65.870;13.210;2024-01-10T06:05:08;101930.66;;;4.07;80.02
82575;BME280;72260;65.870;13.210;2024-01-10T06:07:34;101926.28;;;4.09;80.46
82575;BME280;72260;65.870;13.210;2024-01-10T06:10:00;101913.09;;;4.17;79.72
82575;BME280;72260;65.870;13.210;2024-01-10T06:12:26;101912.38;;;4.04;80.80
82575;BME280;72260;65.870;13.210;2024-01-10T06:14:52;101904.53;;;4.04;80.61
82575;BME280;72260;65.870;13.210;2024-01-10T06:17:17;101900.91;;;4.14;80.38
82575;BME280;72260;65.870;13.210;2024-01-10T06:19:44;101901.84;;;4.10;79.76
82575;BME280;72260;65.870;13.210;2024-01-10T06:22:09;101905.44;;;4.01;79.83
82575;BME280;72260;65.870;13.210;2024-01-10T06:24:36;101902.88;;;3.97;80.12
82575;BME280;72260;65.870;13.210;2024-01-10T06:27:03;101891.41;;;4.07;79.99
82575;BME280;72260;65.870;13.210;2024-01-10T06:29:29;101898.41;;;4.05;79.39
82575;BME280;72260;65.870;13.210;2024-01-10T06:31:55;101901.94;;;4.02;79.92
82575;BME280;72260;65.870;13.210;2024-01-10T06:34:22;101888.66;;;4.16;78.80
82575;BME280;72260;65.870;13.210;2024-01-10T06:36:47;101893.00;;;4.17;77.80
82575;BME280;72260;65.870;13.210;2024-01-10T06:39:13;101888.72;;;4.12;78.49
82575;BME280;72260;65.870;13.210;2024-01-10T06:41:39;101887.94;;;4.05;79.07
82575;BME280;72260;65.870;13.210;2024-01-10T06:44:06;101911.53;;;4.03;78.75
82575;BME280;72260;65.870;13.210;2024-01-10T06:46:32;101899.34;;;4.01;78.29
82575;BME280;72260;65.870;13.210;2024-01-10T06:48:59;101902.63;;;4.15;78.04
82575;BME280;72260;65.870;13.210;2024-01-10T06:51:25;101897.22;;;4.26;77.68
82575;BME280;72260;65.870;13.210;2024-01-10T06:53:52;101901.97;;;4.01;77.89
82575;BME280;72260;65.870;13.210;2024-01-10T06:56:17;101901.13;;;3.99;77.57
82575;BME280;72260;65.870;13.210;2024-01-10T06:58:44;101911.66;;;3.94;78.42
82575;BME280;72260;65.870;13.210;2024-01-10T07:01:13;101911.34;;;4.16;76.11
82575;BME280;72260;65.870;13.210;2024-01-10T07:03:40;101903.50;;;4.16;75.52
82575;BME280;72260;65.870;13.210;2024-01-10T07:06:07;101906.94;;;4.19;75.28
82575;BME280;72260;65.870;13.210;2024-01-10T07:08:32;101912.00;;;4.28;74.00
82575;BME280;72260;65.870;13.210;2024-01-10T07:10:58;101905.06;;;4.27;74.95
82575;BME280;72260;65.870;13.210;2024-01-10T07:13:24;101910.06;;;4.43;74.88
82575;BME280;72260;65.870;13.210;2024-01-10T07:15:50;101906.59;;;4.41;74.28
82575;BME280;72260;65.870;13.210;2024-01-10T07:18:19;101904.63;;;4.55;75.60
82575;BME280;72260;65.870;13.210;2024-01-10T07:20:44;101899.50;;;4.47;73.35
82575;BME280;72260;65.870;13.210;2024-01-10T07:23:10;101899.63;;;4.39;75.42
82575;BME280;72260;65.870;13.210;2024-01-10T07:25:36;101902.59;;;4.18;76.63
82575;BME280;72260;65.870;13.210;2024-01-10T07:28:02;101891.22;;;4.21;76.19
82575;BME280;72260;65.870;13.210;2024-01-10T07:30:29;101886.72;;;4.27;75.75
82575;BME280;72260;65.870;13.210;2024-01-10T07:32:58;101886.63;;;4.33;76.96
82575;BME280;72260;65.870;13.210;2024-01-10T07:35:23;101876.41;;;4.20;77.32
82575;BME280;72260;65.870;13.210;2024-01-10T07:37:49;101879.91;;;4.19;77.84
82575;BME280;72260;65.870;13.210;2024-01-10T07:40:15;101882.47;;;4.22;77.10
82575;BME280;72260;65.870;13.210;2024-01-10T07:42:43;101881.00;;;4.04;78.06
82575;BME280;72260;65.870;13.210;2024-01-10T07:45:09;101876.28;;;4.26;76.82
82575;BME280;72260;65.870;13.210;2024-01-10T07:47:35;101872.13;;;4.14;77.09
82575;BME280;72260;65.870;13.210;2024-01-10T07:52:30;101874.72;;;4.14;77.21
82575;BME280;72260;65.870;13.210;2024-01-10T07:54:58;101872.00;;;4.22;77.45
82575;BME280;72260;65.870;13.210;2024-01-10T07:57:23;101877.13;;;4.28;77.25
82575;BME280;72260;65.870;13.210;2024-01-10T07:59:49;101877.19;;;4.23;77.05
82575;BME280;72260;65.870;13.210;2024-01-10T08:02:14;101876.22;;;4.30;75.55
82575;BME280;72260;65.870;13.210;2024-01-10T08:04:40;101865.03;;;4.22;76.33
82575;BME280;72260;65.870;13.210;2024-01-10T08:07:05;101859.66;;;4.28;76.80
82575;BME280;72260;65.870;13.210;2024-01-10T08:09:31;101852.88;;;4.18;77.46
82575;BME280;72260;65.870;13.210;2024-01-10T08:11:56;101843.34;;;4.13;77.51
82575;BME280;72260;65.870;13.210;2024-01-10T08:14:22;101845.06;;;4.15;78.01
82575;BME280;72260;65.870;13.210;2024-01-10T08:16:48;101842.41;;;4.18;77.33
82575;BME280;72260;65.870;13.210;2024-01-10T08:19:13;101853.72;;;4.19;77.67
82575;BME280;72260;65.870;13.210;2024-01-10T08:21:39;101852.88;;;4.17;78.24
82575;BME280;72260;65.870;13.210;2024-01-10T08:24:05;101854.63;;;4.18;78.11
82575;BME280;72260;65.870;13.210;2024-01-10T08:26:31;101843.97;;;4.27;77.53
82575;BME280;72260;65.870;13.210;2024-01-10T08:28:57;101849.22;;;4.25;78.05
82575;BME280;72260;65.870;13.210;2024-01-10T08:31:22;101845.56;;;4.37;76.68
82575;BME280;72260;65.870;13.210;2024-01-10T08:33:49;101851.81;;;4.27;77.73
82575;BME280;72260;65.870;13.210;2024-01-10T08:36:14;101856.31;;;4.22;77.75
82575;BME280;72260;65.870;13.210;2024-01-10T08:38:40;101850.56;;;3.97;81.15
82575;BME280;72260;65.870;13.210;2024-01-10T08:41:07;101838.31;;;3.99;79.70
82575;BME280;72260;65.870;13.210;2024-01-10T08:43:34;101839.19;;;3.98;80.32
82575;BME280;72260;65.870;13.210;2024-01-10T08:45:59;101836.53;;;4.01;79.76
82575;BME280;72260;65.870;13.210;2024-01-10T08:48:25;101820.78;;;4.05;80.56
82575;BME280;72260;65.870;13.210;2024-01-10T08:50:51;101831.13;;;4.13;80.84
82575;BME280;72260;65.870;13.210;2024-01-10T08:53:16;101834.63;;;4.12;80.67
82575;BME280;72260;65.870;13.210;2024-01-10T08:58:17;101818.13;;;4.07;81.46
82575;BME280;72260;65.870;13.210;2024-01-10T09:00:42;101811.84;;;4.19;80.16
82575;BME280;72260;65.870;13.210;2024-01-10T09:03:08;101810.19;;;4.13;81.66
82575;BME280;72260;65.870;13.210;2024-01-10T09:05:34;101811.84;;;4.19;80.86
82575;BME280;72260;65.870;13.210;2024-01-10T09:07:59;101826.00;;;4.05;80.47
82575;BME280;72260;65.870;13.210;2024-01-10T09:10:25;101818.09;;;4.10;81.32
82575;BME280;72260;65.870;13.210;2024-01-10T09:12:53;101821.63;;;4.06;81.80
82575;BME280;72260;65.870;13.210;2024-01-10T09:15:20;101812.88;;;4.09;81.42
82575;BME280;72260;65.870;13.210;2024-01-10T09:17:46;101824.31;;;4.01;82.15
82575;BME280;72260;65.870;13.210;2024-01-10T09:20:12;101823.56;;;3.95;82.09
82575;BME280;72260;65.870;13.210;2024-01-10T09:22:38;101822.81;;;3.87;82.57
82575;BME280;72260;65.870;13.210;2024-01-10T09:25:05;101819.38;;;3.83;82.13
82575;BME280;72260;65.870;13.210;2024-01-10T09:27:34;101817.38;;;4.00;82.21
82575;BME280;72260;65.870;13.210;2024-01-10T09:30:00;101796.41;;;4.02;83.12
82575;BME280;72260;65.870;13.210;2024-01-10T09:32:34;101802.75;;;3.89;83.57
82575;BME280;72260;65.870;13.210;2024-01-10T09:35:00;101797.31;;;3.99;82.51
82575;BME280;72260;65.870;13.210;2024-01-10T09:37:26;101791.88;;;4.13;81.94
82575;BME280;72260;65.870;13.210;2024-01-10T09:39:51;101788.28;;;4.19;81.39
82575;BME280;72260;65.870;13.210;2024-01-10T09:42:21;101775.03;;;4.28;81.22
82575;BME280;72260;65.870;13.210;2024-01-10T09:44:51;101771.63;;;4.23;81.91
82575;BME280;72260;65.870;13.210;2024-01-10T09:47:18;101765.53;;;4.22;82.99
82575;BME280;72260;65.870;13.210;2024-01-10T09:49:45;101752.31;;;4.28;81.47
82575;BME280;72260;65.870;13.210;2024-01-10T09:52:16;101752.03;;;4.45;81.18
82575;BME280;72260;65.870;13.210;2024-01-10T09:54:46;101746.91;;;4.39;81.23
82575;BME280;72260;65.870;13.210;2024-01-10T09:57:13;101743.47;;;4.35;80.85
82575;BME280;72260;65.870;13.210;2024-01-10T09:59:38;101764.53;;;4.29;82.32
82575;BME280;72260;65.870;13.210;2024-01-10T10:02:04;101754.72;;;4.41;81.38
82575;BME280;72260;65.870;13.210;2024-01-10T10:04:30;101753.66;;;4.52;80.89
82575;BME280;72260;65.870;13.210;2024-01-10T10:07:00;101750.16;;;4.52;81.27
82575;BME280;72260;65.870;13.210;2024-01-10T10:09:26;101744.19;;;4.45;80.53
82575;BME280;72260;65.870;13.210;2024-01-10T10:11:56;101722.94;;;4.59;80.22
82575;BME280;72260;65.870;13.210;2024-01-10T10:14:24;101720.16;;;4.68;81.42
82575;BME280;72260;65.870;13.210;2024-01-10T10:16:51;101717.16;;;4.43;80.58
82575;BME280;72260;65.870;13.210;2024-01-10T10:19:26;101709.00;;;4.57;81.68
82575;BME280;72260;65.870;13.210;2024-01-10T10:21:53;101707.16;;;4.62;80.26
82575;BME280;72260;65.870;13.210;2024-01-10T10:24:25;101710.19;;;4.85;79.54
82575;BME280;72260;65.870;13.210;2024-01-10T10:26:51;101700.06;;;4.68;80.28
82575;BME280;72260;65.870;13.210;2024-01-10T10:29:19;101693.06;;;4.69;81.78
82575;BME280;72260;65.870;13.210;2024-01-10T10:31:47;101698.81;;;4.86;80.37
82575;BME280;72260;65.870;13.210;2024-01-10T10:34:20;101687.44;;;4.87;79.84
82575;BME280;72260;65.870;13.210;2024-01-10T10:36:48;101696.75;;;5.00;79.53
82575;BME280;72260;65.870;13.210;2024-01-10T10:39:16;101695.91;;;4.98;79.81
82575;BME280;72260;65.870;13.210;2024-01-10T10:41:42;101697.78;;;4.93;79.67
82575;BME280;72260;65.870;13.210;2024-01-10T10:44:09;101704.78;;;4.93;79.86
82575;BME280;72260;65.870;13.210;2024-01-10T10:46:37;101704.13;;;4.83;80.80
82575;BME280;72260;65.870;13.210;2024-01-10T10:49:11;101692.72;;;4.86;81.67
82575;BME280;72260;65.870;13.210;2024-01-10T10:51:38;101689.38;;;4.78;82.19
82575;BME280;72260;65.870;13.210;2024-01-10T10:54:07;101692.97;;;4.73;81.59
82575;BME280;72260;65.870;13.210;2024-01-10T10:56:33;101690.38;;;4.72;81.84
82575;BME280;72260;65.870;13.210;2024-01-10T10:59:02;101680.38;;;4.89;80.81
82575;BME280;72260;65.870;13.210;2024-01-10T11:01:31;101687.44;;;4.87;79.47
82575;BME280;72260;65.870;13.210;2024-01-10T11:03:57;101679.78;;;4.78;80.18
82575;BME280;72260;65.870;13.210;2024-01-10T11:06:24;101666.50;;;4.87;80.19
82575;BME280;72260;65.870;13.210;2024-01-10T11:08:52;101675.63;;;5.08;79.56
82575;BME280;72260;65.870;13.210;2024-01-10T11:25:26;101670.31;;;5.11;79.70
82575;BME280;72260;65.870;13.210;2024-01-10T11:28:02;101666.03;;;5.07;79.77
82575;BME280;72260;65.870;13.210;2024-01-10T11:30:35;101655.72;;;4.99;81.09
82575;BME280;72260;65.870;13.210;2024-01-10T11:33:21;101658.50;;;4.92;81.57
82575;BME280;72260;65.870;13.210;2024-01-10T11:39:00;101650.19;;;5.12;80.93
82575;BME280;72260;65.870;13.210;2024-01-10T11:41:35;101649.34;;;5.11;79.91
82575;BME280;72260;65.870;13.210;2024-01-10T11:44:27;101645.22;;;4.99;82.11
82575;BME280;72260;65.870;13.210;2024-01-10T11:46:54;101654.72;;;5.05;81.81
82575;BME280;72260;65.870;13.210;2024-01-10T11:49:22;101638.97;;;5.06;81.08
82575;BME280;72260;65.870;13.210;2024-01-10T11:51:49;101636.09;;;5.17;81.49
82575;BME280;72260;65.870;13.210;2024-01-10T11:54:46;101631.75;;;5.16;81.51
82575;BME280;72260;65.870;13.210;2024-01-10T11:59:45;101629.97;;;5.18;82.10
82575;BME280;72260;65.870;13.210;2024-01-10T12:02:11;101627.19;;;5.23;82.06
82575;BME280;72260;65.870;13.210;2024-01-10T12:04:38;101621.34;;;5.13;83.64
82575;BME280;72260;65.870;13.210;2024-01-10T12:07:04;101621.41;;;5.10;83.47
82575;BME280;72260;65.870;13.210;2024-01-10T12:09:31;101621.44;;;5.09;82.73
82575;BME280;72260;65.870;13.210;2024-01-10T12:11:57;101635.44;;;5.07;83.53
82575;BME280;72260;65.870;13.210;2024-01-10T12:14:23;101629.34;;;5.07;83.54
82575;BME280;72260;65.870;13.210;2024-01-10T12:16:51;101621.44;;;5.09;83.20
82575;BME280;72260;65.870;13.210;2024-01-10T12:19:17;101624.31;;;4.96;84.43
82575;BME280;72260;65.870;13.210;2024-01-10T12:21:42;101613.09;;;4.91;84.97
82575;BME280;72260;65.870;13.210;2024-01-10T12:24:08;101613.34;;;4.81;85.46
82575;BME280;72260;65.870;13.210;2024-01-10T12:26:33;101609.94;;;4.77;86.30
82575;BME280;72260;65.870;13.210;2024-01-10T12:28:59;101603.50;;;4.90;84.62
82575;BME280;72260;65.870;13.210;2024-01-10T12:31:29;101602.59;;;4.91;85.15
82575;BME280;72260;65.870;13.210;2024-01-10T12:33:55;101597.16;;;5.00;84.39
82575;BME280;72260;65.870;13.210;2024-01-10T12:36:20;101597.22;;;4.97;84.61
82575;BME280;72260;65.870;13.210;2024-01-10T12:38:46;101606.81;;;4.98;85.23
82575;BME280;72260;65.870;13.210;2024-01-10T12:41:12;101598.19;;;4.93;84.89
82575;BME280;72260;65.870;13.210;2024-01-10T12:43:41;101580.63;;;4.97;84.59
82575;BME280;72260;65.870;13.210;2024-01-10T12:46:12;101579.84;;;4.93;85.21
82575;BME280;72260;65.870;13.210;2024-01-10T12:48:39;101585.00;;;4.98;84.51
82575;BME280;72260;65.870;13.210;2024-01-10T12:51:12;101574.22;;;5.10;83.61
82575;BME280;72260;65.870;13.210;2024-01-10T12:53:40;101583.25;;;4.97;84.96
82575;BME280;72260;65.870;13.210;2024-01-10T12:56:07;101581.44;;;5.00;85.13
82575;BME280;72260;65.870;13.210;2024-01-10T12:58:35;101577.53;;;5.18;84.22
82575;BME280;72260;65.870;13.210;2024-01-10T13:01:05;101590.94;;;5.04;84.37
82575;BME280;72260;65.870;13.210;2024-01-10T13:03:30;101571.75;;;5.04;84.43
82575;BME280;72260;65.870;13.210;2024-01-10T13:05:56;101577.88;;;5.03;84.29
82575;BME280;72260;65.870;13.210;2024-01-10T13:08:22;101547.28;;;5.03;83.74
82575;BME280;72260;65.870;13.210;2024-01-10T13:10:48;101548.78;;;5.14;82.59